Terminal Aerodrome Forecast
Issued by NWS

Home | Current Version | Previous Version | Text Only | Print | Product List | Glossary On
Versions: 1 2 3 4 5 6 7 8 9 10 11 12 13 14 15 16
177
FTUS43 KGRR 182340
TAFLAN
TAF
KLAN 182340Z 1900/1924 15010KT P6SM BKN200
     FM191200 19007KT P6SM OVC015
     FM191500 18006KT 2SM BR OVC008
     FM191800 15006KT 1/2SM DZ FG OVC004=

USA.gov is the U.S. government's official web portal to all federal, state and local government web resources and services.